Time;durP1;ratioP1;P1;durP2;ratioP2;P2;SDS_P1;SDS_P2;PMS_P1;PMS_P2;Temp;Humidity;BMP_temperature;BMP_pressure;BME280_temperature;BME280_humidity;BME280_pressure;Samples;Min_cycle;Max_cycle;Signal;HPM_P1;HPM_P2
2022/03/15 00:01:43;;;;;;;16.15;7.82;;;2.10;99.90;;;;;;5007125;28;20022;-79
2022/03/15 00:04:08;;;;;;;12.85;7.97;;;2.00;99.90;;;;;;5006594;28;20509;-80
2022/03/15 00:06:34;;;;;;;17.48;8.88;;;1.90;99.90;;;;;;5007078;28;20535;-79
2022/03/15 00:09:00;;;;;;;17.52;8.43;;;1.90;99.90;;;;;;5006907;28;20037;-80
2022/03/15 00:11:27;;;;;;;19.80;10.35;;;1.90;99.90;;;;;;5007601;28;20065;-79
2022/03/15 00:13:53;;;;;;;18.48;8.90;;;1.90;99.90;;;;;;5007325;28;20066;-79
2022/03/15 00:16:19;;;;;;;16.60;8.43;;;1.90;99.90;;;;;;5006919;28;20818;-80
2022/03/15 00:18:45;;;;;;;17.90;8.63;;;1.90;99.90;;;;;;5007604;28;20022;-80
2022/03/15 00:21:12;;;;;;;18.25;9.50;;;1.80;99.90;;;;;;5008064;28;20033;-80
2022/03/15 00:23:38;;;;;;;22.77;9.30;;;1.80;99.90;;;;;;5006823;28;20045;-79
2022/03/15 00:26:04;;;;;;;17.20;9.05;;;1.70;99.90;;;;;;5006827;28;20181;-79
2022/03/15 00:28:31;;;;;;;16.52;8.55;;;1.80;99.90;;;;;;5007278;28;21468;-79
2022/03/15 00:30:57;;;;;;;17.98;9.07;;;1.80;99.90;;;;;;5006478;28;20029;-80
2022/03/15 00:33:24;;;;;;;17.55;9.38;;;2.00;99.90;;;;;;5006909;28;20048;-80
2022/03/15 00:35:51;;;;;;;22.67;9.23;;;2.00;99.90;;;;;;5006750;28;20026;-80
2022/03/15 00:38:16;;;;;;;16.15;9.65;;;2.10;99.90;;;;;;5006157;28;20444;-80
2022/03/15 00:40:42;;;;;;;16.17;9.77;;;2.20;99.90;;;;;;5004241;28;20030;-80
2022/03/15 00:43:08;;;;;;;18.52;9.52;;;2.20;99.90;;;;;;5005867;28;20445;-80
2022/03/15 00:45:41;;;;;;;25.20;10.68;;;2.40;99.90;;;;;;5006304;28;20042;-80
2022/03/15 00:48:07;;;;;;;25.05;11.20;;;2.40;99.90;;;;;;5005811;28;20061;-79
2022/03/15 00:50:36;;;;;;;22.45;10.70;;;2.50;99.90;;;;;;5006502;28;20041;-80
2022/03/15 00:53:31;;;;;;;22.20;10.07;;;2.40;99.90;;;;;;5005899;28;20098;-80
2022/03/15 00:55:57;;;;;;;21.30;10.07;;;2.50;99.90;;;;;;5005795;28;20029;-79
2022/03/15 00:58:26;;;;;;;25.50;10.93;;;2.60;99.90;;;;;;5006447;28;20037;-80
2022/03/15 01:00:51;;;;;;;26.45;10.40;;;2.80;99.90;;;;;;5006570;28;20037;-79
2022/03/15 01:03:21;;;;;;;21.17;10.38;;;2.90;99.90;;;;;;5004037;28;20369;-79
2022/03/15 01:05:47;;;;;;;26.13;10.67;;;3.10;99.90;;;;;;5005918;28;20041;-79
2022/03/15 01:08:13;;;;;;;28.30;11.95;;;3.20;99.90;;;;;;5006416;28;20408;-80
2022/03/15 01:10:39;;;;;;;24.45;10.93;;;3.30;99.90;;;;;;5006401;28;20109;-80
2022/03/15 01:13:04;;;;;;;22.77;11.70;;;3.50;99.90;;;;;;5005841;28;20030;-80
2022/03/15 01:15:39;;;;;;;26.58;12.13;;;3.40;99.90;;;;;;5007593;28;20041;-79
2022/03/15 01:18:04;;;;;;;28.63;11.27;;;3.40;99.90;;;;;;5007205;28;20021;-80
2022/03/15 01:20:30;;;;;;;27.08;11.35;;;3.40;99.90;;;;;;5008797;28;20029;-79
2022/03/15 01:22:56;;;;;;;29.83;11.43;;;3.50;99.90;;;;;;5006162;28;20477;-80
2022/03/15 01:25:24;;;;;;;25.70;10.75;;;3.70;99.90;;;;;;5004875;28;20140;-80
2022/03/15 01:27:52;;;;;;;32.53;12.50;;;3.60;99.90;;;;;;5006660;28;20496;-80
2022/03/15 01:30:30;;;;;;;22.73;10.93;;;3.70;99.90;;;;;;5006433;28;20034;-80
2022/03/15 01:32:55;;;;;;;32.22;11.98;;;3.70;99.90;;;;;;5004556;28;20034;-80
2022/03/15 01:35:21;;;;;;;27.75;12.55;;;3.80;99.90;;;;;;5005890;28;20033;-80
2022/03/15 01:37:47;;;;;;;25.30;12.40;;;3.80;99.90;;;;;;5006429;28;20477;-80
2022/03/15 01:40:13;;;;;;;31.25;12.50;;;3.90;99.90;;;;;;5005903;28;20041;-79
2022/03/15 01:42:40;;;;;;;30.33;11.88;;;4.00;99.90;;;;;;5005733;28;20046;-80
2022/03/15 01:45:06;;;;;;;25.80;12.70;;;4.20;99.90;;;;;;5005798;28;20042;-79
2022/03/15 01:47:32;;;;;;;32.72;14.00;;;4.30;99.90;;;;;;5010830;28;20026;-80
2022/03/15 01:49:58;;;;;;;29.73;12.95;;;4.30;99.90;;;;;;5015410;28;20049;-79
2022/03/15 01:52:24;;;;;;;31.30;13.23;;;4.40;99.90;;;;;;5016214;28;20022;-79
2022/03/15 01:54:50;;;;;;;27.08;11.48;;;4.50;99.90;;;;;;5016196;28;20052;-79
2022/03/15 01:57:16;;;;;;;30.63;12.32;;;4.50;99.90;;;;;;5015905;28;20033;-80
2022/03/15 01:59:42;;;;;;;24.70;12.55;;;4.50;99.90;;;;;;5016607;28;20026;-79
2022/03/15 02:02:08;;;;;;;28.30;12.05;;;4.80;99.90;;;;;;5016297;28;20436;-79
2022/03/15 02:04:36;;;;;;;30.83;13.25;;;4.80;99.90;;;;;;5016081;28;20030;-79
2022/03/15 02:07:13;;;;;;;27.23;10.90;;;4.80;99.90;;;;;;5016391;28;20081;-79
2022/03/15 02:09:52;;;;;;;25.63;11.88;;;4.80;99.90;;;;;;5016543;28;20081;-79
2022/03/15 02:12:17;;;;;;;27.02;11.48;;;4.80;99.90;;;;;;5016808;28;20073;-80
2022/03/15 02:14:43;;;;;;;23.70;11.95;;;4.80;99.90;;;;;;5057572;22;20046;-80
2022/03/15 02:17:08;;;;;;;29.85;12.23;;;5.00;99.90;;;;;;5036725;28;20240;-81
2022/03/15 02:19:36;;;;;;;24.63;12.35;;;5.00;99.90;;;;;;5037439;28;20022;-81
2022/03/15 02:22:02;;;;;;;25.58;11.55;;;5.10;99.90;;;;;;5044023;28;20022;-81
2022/03/15 02:24:28;;;;;;;25.80;12.02;;;5.10;99.90;;;;;;5055899;28;20085;-80
2022/03/15 02:26:54;;;;;;;29.02;12.35;;;5.10;99.90;;;;;;5053924;28;20037;-80
2022/03/15 02:29:21;;;;;;;20.30;11.35;;;5.10;99.90;;;;;;5054395;28;20017;-82
2022/03/15 02:31:48;;;;;;;25.23;11.30;;;5.20;99.90;;;;;;5054082;28;20045;-79
2022/03/15 02:34:14;;;;;;;32.97;11.70;;;5.30;99.90;;;;;;5055872;28;20028;-82
2022/03/15 02:36:40;;;;;;;22.83;11.30;;;5.30;99.90;;;;;;5054147;28;20029;-80
2022/03/15 02:39:05;;;;;;;18.52;11.02;;;5.30;99.90;;;;;;5053410;28;20036;-80
2022/03/15 02:41:31;;;;;;;18.90;10.07;;;5.30;99.90;;;;;;5055417;28;20021;-81
2022/03/15 02:43:57;;;;;;;20.23;10.27;;;5.20;99.90;;;;;;5054720;28;20045;-80
2022/03/15 02:46:29;;;;;;;22.33;10.02;;;5.10;99.90;;;;;;5054850;28;20026;-81
2022/03/15 02:48:55;;;;;;;19.67;9.77;;;5.00;99.90;;;;;;5047297;28;20524;-80
2022/03/15 02:51:21;;;;;;;16.05;9.00;;;5.10;99.90;;;;;;5055189;28;20543;-80
2022/03/15 02:53:47;;;;;;;22.00;10.07;;;5.10;99.90;;;;;;5058430;28;20044;-80
2022/03/15 02:56:13;;;;;;;16.35;8.57;;;5.00;99.90;;;;;;5056055;28;20077;-79
2022/03/15 02:58:39;;;;;;;19.75;9.50;;;4.90;99.90;;;;;;5054905;28;20006;-79
2022/03/15 03:01:05;;;;;;;16.60;8.50;;;4.80;99.90;;;;;;5054669;28;20104;-81
2022/03/15 03:03:31;;;;;;;21.38;9.02;;;4.60;99.90;;;;;;5054591;28;20021;-81
2022/03/15 03:05:56;;;;;;;13.77;8.20;;;4.60;99.90;;;;;;5052588;28;20009;-80
2022/03/15 03:08:27;;;;;;;19.52;9.05;;;4.60;99.90;;;;;;5054950;28;20155;-82
2022/03/15 03:10:52;;;;;;;15.77;9.18;;;4.60;99.90;;;;;;5052587;28;20021;-80
2022/03/15 03:13:26;;;;;;;15.18;8.98;;;4.70;99.90;;;;;;5053525;28;20049;-80
2022/03/15 03:15:59;;;;;;;15.73;9.40;;;4.80;99.90;;;;;;5054238;28;20029;-80
2022/03/15 03:18:28;;;;;;;15.82;8.88;;;4.80;99.90;;;;;;5052461;28;20055;-81
2022/03/15 03:20:54;;;;;;;17.42;8.70;;;4.80;99.90;;;;;;5053359;28;20392;-80
2022/03/15 03:23:20;;;;;;;20.25;9.00;;;4.90;99.90;;;;;;5046034;28;20021;-80
2022/03/15 03:25:46;;;;;;;16.88;9.05;;;4.90;99.90;;;;;;5053597;28;20081;-80
2022/03/15 03:28:14;;;;;;;15.85;9.38;;;4.90;99.90;;;;;;5051824;28;20014;-81
2022/03/15 03:30:46;;;;;;;13.52;8.55;;;4.80;99.90;;;;;;5051807;28;20066;-80
2022/03/15 03:33:13;;;;;;;21.13;8.93;;;4.70;99.90;;;;;;5053336;28;20065;-82
2022/03/15 03:35:38;;;;;;;13.23;8.30;;;4.60;99.90;;;;;;5053676;28;20026;-82
2022/03/15 03:38:05;;;;;;;17.80;8.75;;;4.60;99.90;;;;;;5053462;28;20045;-81
2022/03/15 03:40:31;;;;;;;17.73;8.73;;;4.60;99.90;;;;;;5053370;28;20021;-81
2022/03/15 03:42:57;;;;;;;13.55;8.32;;;4.50;99.90;;;;;;5053647;28;20013;-80
2022/03/15 03:45:23;;;;;;;15.85;8.50;;;4.50;99.90;;;;;;5053285;28;20536;-80
2022/03/15 03:47:49;;;;;;;14.73;8.15;;;4.40;99.90;;;;;;5054100;28;20022;-80
2022/03/15 03:50:14;;;;;;;16.30;8.65;;;4.40;99.90;;;;;;5052690;28;20029;-81
2022/03/15 03:52:40;;;;;;;16.48;8.82;;;4.40;99.90;;;;;;5054068;28;20021;-81
2022/03/15 03:55:06;;;;;;;15.35;8.10;;;4.30;99.90;;;;;;5054405;28;20053;-81
2022/03/15 03:57:32;;;;;;;15.50;9.18;;;4.30;99.90;;;;;;5053620;28;20009;-80
2022/03/15 03:59:58;;;;;;;19.80;8.70;;;4.30;99.90;;;;;;5054530;28;20028;-82
2022/03/15 04:02:26;;;;;;;14.85;9.02;;;4.30;99.90;;;;;;5055121;28;20006;-81
2022/03/15 04:04:52;;;;;;;16.30;9.23;;;4.30;99.90;;;;;;5053577;28;20013;-81
2022/03/15 04:07:19;;;;;;;16.38;9.90;;;4.20;99.90;;;;;;5053615;28;20381;-80
2022/03/15 04:09:45;;;;;;;16.52;8.93;;;4.30;99.90;;;;;;5053920;28;20113;-80
2022/03/15 04:12:10;;;;;;;18.05;9.73;;;4.30;99.90;;;;;;5052684;28;20397;-80
2022/03/15 04:14:36;;;;;;;14.55;9.43;;;4.40;99.90;;;;;;5049676;28;20050;-80
2022/03/15 04:17:03;;;;;;;20.20;10.05;;;4.40;99.90;;;;;;5051875;28;20048;-80
2022/03/15 04:19:28;;;;;;;15.05;9.93;;;4.40;99.90;;;;;;5050026;28;20427;-80
2022/03/15 04:21:54;;;;;;;14.80;9.43;;;4.40;99.90;;;;;;5042492;28;20014;-81
2022/03/15 04:24:19;;;;;;;17.98;10.15;;;4.40;99.90;;;;;;5032162;28;20037;-80
2022/03/15 04:26:46;;;;;;;17.75;9.65;;;4.40;99.90;;;;;;5032215;28;20085;-80
2022/03/15 04:29:12;;;;;;;20.38;10.13;;;4.40;99.90;;;;;;5031689;28;20030;-80
2022/03/15 04:31:37;;;;;;;17.90;10.15;;;4.30;99.90;;;;;;5030383;28;20045;-80
2022/03/15 04:34:03;;;;;;;18.27;9.52;;;4.40;99.90;;;;;;5032025;28;20034;-81
2022/03/15 04:36:29;;;;;;;19.10;9.30;;;4.30;99.90;;;;;;5029993;28;20029;-80
2022/03/15 04:38:55;;;;;;;18.35;10.65;;;4.30;99.90;;;;;;5030916;28;20021;-80
2022/03/15 04:41:21;;;;;;;18.02;10.68;;;4.30;99.90;;;;;;5030487;28;20022;-80
2022/03/15 04:43:46;;;;;;;21.75;9.73;;;4.30;99.90;;;;;;5030454;28;20033;-81
2022/03/15 04:46:12;;;;;;;20.48;10.95;;;4.30;99.90;;;;;;5030344;28;20452;-81
2022/03/15 04:48:39;;;;;;;14.85;9.80;;;4.30;99.90;;;;;;5032523;28;20029;-80
2022/03/15 04:51:05;;;;;;;17.58;9.57;;;4.30;99.90;;;;;;5035224;28;20045;-80
2022/03/15 04:53:31;;;;;;;19.65;10.98;;;4.30;99.90;;;;;;5032037;28;20010;-80
2022/03/15 04:55:57;;;;;;;18.33;10.25;;;4.40;99.90;;;;;;5029649;28;20029;-80
2022/03/15 04:58:23;;;;;;;20.20;10.70;;;4.30;50.80;;;;;;5032219;28;20030;-82
2022/03/15 05:00:48;;;;;;;18.30;9.85;;;4.30;78.80;;;;;;5032354;28;20034;-81
2022/03/15 05:03:16;;;;;;;16.77;10.27;;;4.30;39.90;;;;;;5032155;28;20678;-80
2022/03/15 05:05:44;;;;;;;16.98;10.40;;;4.30;40.40;;;;;;5032336;28;20081;-80
2022/03/15 05:08:10;;;;;;;17.90;10.73;;;4.30;39.40;;;;;;5032533;28;20002;-81
2022/03/15 05:13:20;;;;;;;21.50;12.23;;;4.30;1.00;;;;;;5030279;28;20060;-80
2022/03/15 05:15:47;;;;;;;16.83;10.82;;;4.20;1.00;;;;;;5028602;28;20033;-81
2022/03/15 05:18:13;;;;;;;19.67;11.10;;;4.20;1.00;;;;;;5030523;28;20018;-79
2022/03/15 05:20:38;;;;;;;17.05;10.13;;;4.20;1.00;;;;;;5029391;28;20088;-80
2022/03/15 05:23:04;;;;;;;19.77;11.15;;;4.20;1.00;;;;;;5045002;28;20416;-80
2022/03/15 05:25:29;;;;;;;19.75;11.85;;;4.30;1.00;;;;;;5034405;28;20080;-80
2022/03/15 05:27:55;;;;;;;23.85;11.55;;;4.40;1.00;;;;;;5020417;28;20032;-81
2022/03/15 05:30:21;;;;;;;22.65;12.68;;;4.50;1.00;;;;;;5035007;28;20083;-80
2022/03/15 05:32:46;;;;;;;22.25;11.88;;;4.50;1.00;;;;;;5038805;28;20108;-80
2022/03/15 05:35:12;;;;;;;21.52;12.30;;;4.60;1.00;;;;;;5036731;28;20037;-80
2022/03/15 05:37:38;;;;;;;19.65;12.20;;;4.60;1.00;;;;;;5035019;28;20017;-80
2022/03/15 05:40:04;;;;;;;24.70;12.55;;;4.60;1.00;;;;;;5035260;28;20032;-80
2022/03/15 05:42:29;;;;;;;28.02;12.07;;;4.50;1.00;;;;;;5030875;28;20083;-80
2022/03/15 05:44:55;;;;;;;23.02;13.35;;;4.50;1.00;;;;;;5015399;28;20018;-80
2022/03/15 05:47:21;;;;;;;22.13;13.38;;;4.60;1.00;;;;;;5026819;28;20030;-80
2022/03/15 05:49:46;;;;;;;25.30;12.38;;;4.60;1.00;;;;;;5033299;28;20034;-77
2022/03/15 05:52:12;;;;;;;24.90;12.77;;;4.80;19.70;;;;;;5023566;28;20022;-78
2022/03/15 05:54:37;;;;;;;25.92;14.30;;;4.90;24.30;;;;;;5016582;28;20049;-77
2022/03/15 05:57:03;;;;;;;23.27;12.52;;;4.90;19.10;;;;;;5019515;28;20038;-79
2022/03/15 05:59:29;;;;;;;23.65;13.10;;;4.90;3.00;;;;;;5034344;28;20022;-77
2022/03/15 06:01:54;;;;;;;27.27;13.63;;;4.80;1.00;;;;;;5021319;28;20096;-76
2022/03/15 06:04:24;;;;;;;21.23;13.27;;;4.90;1.00;;;;;;5035990;28;20025;-77
2022/03/15 06:06:49;;;;;;;26.65;12.70;;;4.90;1.00;;;;;;5031958;28;20032;-78
2022/03/15 06:09:15;;;;;;;28.60;13.80;;;4.90;1.00;;;;;;5037325;28;20104;-78
2022/03/15 06:11:41;;;;;;;28.85;14.13;;;5.00;1.00;;;;;;5036863;28;20104;-77
2022/03/15 06:14:07;;;;;;;28.48;13.80;;;5.00;1.00;;;;;;5036079;28;20061;-77
2022/03/15 06:16:33;;;;;;;23.67;13.98;;;5.10;1.00;;;;;;5036510;28;20024;-78
2022/03/15 06:18:59;;;;;;;25.95;13.50;;;5.10;99.90;;;;;;5036112;28;20025;-78
2022/03/15 06:21:24;;;;;;;26.85;14.95;;;5.00;99.90;;;;;;5037142;28;20022;-78
2022/03/15 06:23:50;;;;;;;25.63;13.98;;;5.20;1.00;;;;;;5037356;28;20109;-78
2022/03/15 06:26:18;;;;;;;26.25;14.02;;;5.20;99.90;;;;;;5036891;28;20036;-78
2022/03/15 06:28:44;;;;;;;26.00;15.18;;;5.30;99.90;;;;;;5027683;28;20079;-78
2022/03/15 06:31:10;;;;;;;24.58;14.82;;;5.30;99.90;;;;;;5035900;28;20025;-78
2022/03/15 06:33:35;;;;;;;25.73;15.32;;;5.30;99.90;;;;;;5038554;28;20484;-78
2022/03/15 06:36:02;;;;;;;21.65;14.38;;;5.40;99.90;;;;;;5038663;28;20045;-78
2022/03/15 06:38:28;;;;;;;25.05;16.35;;;5.40;99.90;;;;;;5036380;28;20072;-78
2022/03/15 06:40:53;;;;;;;28.73;16.92;;;5.50;99.90;;;;;;5045258;28;20027;-78
2022/03/15 06:43:19;;;;;;;27.73;17.30;;;5.60;99.90;;;;;;5035006;28;20025;-78
2022/03/15 06:45:46;;;;;;;28.20;15.88;;;5.60;99.90;;;;;;5036937;28;20087;-78
2022/03/15 06:48:12;;;;;;;30.70;16.05;;;5.80;99.90;;;;;;5029268;28;20030;-78
2022/03/15 06:50:39;;;;;;;29.90;16.83;;;5.90;99.90;;;;;;5037202;28;20029;-78
2022/03/15 06:53:05;;;;;;;24.85;16.20;;;6.00;99.90;;;;;;5043957;28;20073;-79
2022/03/15 06:55:32;;;;;;;29.30;16.08;;;6.10;99.90;;;;;;5037389;28;20037;-78
2022/03/15 06:57:59;;;;;;;30.17;16.67;;;6.10;99.90;;;;;;5037513;28;20453;-78
2022/03/15 07:00:25;;;;;;;31.85;16.92;;;6.20;99.90;;;;;;5032221;28;20148;-78
2022/03/15 07:02:50;;;;;;;33.25;17.55;;;6.40;99.90;;;;;;5022986;28;20047;-78
2022/03/15 07:05:16;;;;;;;30.95;15.93;;;6.50;99.90;;;;;;5033387;28;20045;-78
2022/03/15 07:07:41;;;;;;;35.42;18.10;;;6.60;99.90;;;;;;5036248;28;20064;-79
2022/03/15 07:10:09;;;;;;;29.17;16.92;;;6.70;99.90;;;;;;5035980;28;20041;-78
2022/03/15 07:12:35;;;;;;;24.25;15.10;;;7.00;99.90;;;;;;5026265;28;20495;-78
2022/03/15 07:15:03;;;;;;;31.50;16.92;;;7.20;99.90;;;;;;5035540;28;20061;-78
2022/03/15 07:17:30;;;;;;;27.85;15.63;;;7.30;90.90;;;;;;5036950;28;20101;-78
2022/03/15 07:19:59;;;;;;;26.38;15.55;;;7.80;34.50;;;;;;5037564;28;20040;-78
2022/03/15 07:22:25;;;;;;;29.38;15.57;;;8.30;1.00;;;;;;5036009;28;20033;-78
2022/03/15 07:24:51;;;;;;;30.13;15.75;;;8.90;1.00;;;;;;5036254;28;20083;-78
2022/03/15 07:27:18;;;;;;;26.67;15.23;;;9.30;1.00;;;;;;5035988;28;20048;-78
2022/03/15 07:29:44;;;;;;;24.92;14.88;;;9.50;1.00;;;;;;5035139;28;20033;-78
2022/03/15 07:32:09;;;;;;;29.30;14.95;;;9.70;1.00;;;;;;5036401;28;20460;-78
2022/03/15 07:34:35;;;;;;;25.08;13.52;;;9.20;1.00;;;;;;5036437;28;20017;-78
2022/03/15 07:37:01;;;;;;;24.63;15.18;;;8.60;1.00;;;;;;5051366;28;20029;-78
2022/03/15 07:39:27;;;;;;;30.83;14.43;;;8.50;1.00;;;;;;5035712;28;20045;-79
2022/03/15 07:41:53;;;;;;;22.60;13.63;;;8.60;1.00;;;;;;5034803;28;20109;-79
2022/03/15 07:44:18;;;;;;;23.35;13.05;;;8.40;1.00;;;;;;5035036;28;20026;-79
2022/03/15 07:46:48;;;;;;;19.15;12.73;;;8.50;1.00;;;;;;5035297;28;20021;-79
2022/03/15 07:49:18;;;;;;;22.85;12.80;;;8.40;1.00;;;;;;5035726;28;20456;-79
2022/03/15 07:51:44;;;;;;;20.85;13.15;;;8.50;1.00;;;;;;5035503;28;20029;-79
2022/03/15 07:54:10;;;;;;;25.95;12.98;;;8.60;1.00;;;;;;5032618;28;20026;-79
2022/03/15 07:56:36;;;;;;;24.58;12.88;;;8.70;1.00;;;;;;5021014;28;20097;-78
2022/03/15 07:59:02;;;;;;;22.40;13.40;;;8.80;1.00;;;;;;5033957;28;20022;-79
2022/03/15 08:01:28;;;;;;;24.25;12.57;;;8.90;1.00;;;;;;5035755;28;20025;-79
2022/03/15 08:03:54;;;;;;;20.88;11.88;;;8.70;1.00;;;;;;5035894;28;20033;-79
2022/03/15 08:06:19;;;;;;;20.10;12.38;;;8.90;1.00;;;;;;5024873;28;20034;-79
2022/03/15 08:08:45;;;;;;;21.75;11.57;;;9.00;1.00;;;;;;5027286;28;20018;-79
2022/03/15 08:11:11;;;;;;;21.92;12.15;;;9.30;1.00;;;;;;5049238;28;20056;-79
2022/03/15 08:13:37;;;;;;;24.00;13.10;;;9.30;1.00;;;;;;5032507;28;20523;-79
2022/03/15 08:16:04;;;;;;;23.85;12.80;;;9.30;1.00;;;;;;5033718;28;20029;-79
2022/03/15 08:18:30;;;;;;;20.55;12.65;;;9.60;1.00;;;;;;5025854;28;20153;-79
2022/03/15 08:20:57;;;;;;;21.80;12.05;;;9.90;1.00;;;;;;5033775;28;20036;-79
2022/03/15 08:23:23;;;;;;;20.75;11.48;;;9.60;1.00;;;;;;5029356;28;20163;-79
2022/03/15 08:25:49;;;;;;;26.70;12.63;;;9.90;1.00;;;;;;5030747;28;20101;-79
2022/03/15 08:28:15;;;;;;;21.92;12.20;;;10.20;99.90;;;;;;5033514;28;20115;-79
2022/03/15 08:30:40;;;;;;;18.63;11.63;;;10.50;99.90;;;;;;5021214;28;20485;-79
2022/03/15 08:33:06;;;;;;;23.10;12.23;;;11.20;99.90;;;;;;5032556;28;20504;-80
2022/03/15 08:35:32;;;;;;;21.63;11.77;;;11.70;99.90;;;;;;5028177;28;20037;-80
2022/03/15 08:37:57;;;;;;;20.13;10.90;;;11.90;99.90;;;;;;5049305;28;20021;-79
2022/03/15 08:40:23;;;;;;;21.92;11.43;;;12.50;99.90;;;;;;5024655;28;20528;-79
2022/03/15 08:42:49;;;;;;;19.67;10.90;;;12.50;99.90;;;;;;5031267;28;20148;-79
2022/03/15 08:45:15;;;;;;;19.05;10.77;;;12.80;99.90;;;;;;5021746;28;20678;-79
2022/03/15 08:47:41;;;;;;;18.98;11.93;;;12.30;99.90;;;;;;5029411;28;20396;-79
2022/03/15 08:50:09;;;;;;;15.93;9.48;;;12.00;99.90;;;;;;5018596;28;20021;-79
2022/03/15 08:52:35;;;;;;;18.33;10.15;;;12.80;99.90;;;;;;5031488;28;20033;-79
2022/03/15 08:55:02;;;;;;;21.77;10.55;;;13.30;99.90;;;;;;5032433;28;20033;-79
2022/03/15 08:57:28;;;;;;;19.63;10.68;;;13.60;99.90;;;;;;5030213;28;20156;-79
2022/03/15 08:59:54;;;;;;;20.27;10.98;;;13.10;99.90;;;;;;5033363;28;20580;-79
2022/03/15 09:02:20;;;;;;;18.45;9.85;;;12.70;99.90;;;;;;5033498;28;20122;-79
2022/03/15 09:04:46;;;;;;;21.17;10.85;;;12.80;99.90;;;;;;5033635;28;20110;-79
2022/03/15 09:07:12;;;;;;;18.85;10.88;;;12.20;99.90;;;;;;5024064;28;20026;-79
2022/03/15 09:09:38;;;;;;;17.48;10.95;;;12.60;99.90;;;;;;5032641;28;20040;-79
2022/03/15 09:12:05;;;;;;;21.95;11.50;;;13.00;99.90;;;;;;5033360;28;20123;-79
2022/03/15 09:14:31;;;;;;;19.77;10.85;;;13.10;99.90;;;;;;5032950;28;20033;-78
2022/03/15 09:16:57;;;;;;;18.73;11.38;;;12.90;99.90;;;;;;5033333;28;20042;-79
2022/03/15 09:19:23;;;;;;;24.95;13.32;;;13.40;99.90;;;;;;5033484;28;20018;-78
2022/03/15 09:21:49;;;;;;;22.67;11.50;;;13.90;99.90;;;;;;5032988;28;20029;-79
2022/03/15 09:24:15;;;;;;;23.13;12.90;;;14.40;99.90;;;;;;5033046;28;20432;-79
2022/03/15 09:26:41;;;;;;;24.67;12.98;;;14.30;99.90;;;;;;5032747;28;20029;-79
2022/03/15 09:29:07;;;;;;;26.70;13.63;;;14.60;99.90;;;;;;5033290;28;20018;-78
2022/03/15 09:31:33;;;;;;;27.23;12.77;;;15.50;99.90;;;;;;5033465;28;20076;-79
2022/03/15 09:33:58;;;;;;;21.52;12.48;;;14.60;99.90;;;;;;5034876;28;20079;-80
2022/03/15 09:36:25;;;;;;;26.23;13.70;;;14.70;99.90;;;;;;5035165;28;20132;-79
2022/03/15 09:38:51;;;;;;;23.02;12.68;;;14.50;99.90;;;;;;5033333;28;20057;-79
2022/03/15 09:41:18;;;;;;;26.55;14.02;;;14.90;99.90;;;;;;5028435;28;20057;-79
2022/03/15 09:43:45;;;;;;;24.95;13.18;;;14.40;99.90;;;;;;5032780;28;20095;-79
2022/03/15 09:46:12;;;;;;;26.48;14.65;;;14.70;99.90;;;;;;5032830;28;20432;-79
2022/03/15 09:48:40;;;;;;;20.13;12.25;;;14.30;99.90;;;;;;5033485;28;20026;-79
2022/03/15 09:51:11;;;;;;;24.70;15.13;;;14.40;99.90;;;;;;5031946;28;20025;-79
2022/03/15 09:53:37;;;;;;;;;;;15.20;99.90;;;;;;5032346;28;20053;-79
2022/03/15 09:56:03;;;;;;;24.02;14.48;;;14.40;99.90;;;;;;5029985;28;19944;-79
2022/03/15 09:58:29;;;;;;;26.45;15.52;;;14.10;99.90;;;;;;5031763;28;20659;-79
2022/03/15 10:00:57;;;;;;;22.20;14.45;;;12.90;99.90;;;;;;5032083;28;20113;-79
2022/03/15 10:03:23;;;;;;;25.90;15.48;;;13.30;99.90;;;;;;5031361;28;20030;-80
2022/03/15 10:05:52;;;;;;;27.77;14.35;;;13.30;99.90;;;;;;5031754;28;20030;-79
2022/03/15 10:08:18;;;;;;;27.10;15.15;;;14.10;99.90;;;;;;5031727;28;20408;-80
2022/03/15 10:10:49;;;;;;;30.35;16.42;;;14.20;99.90;;;;;;5031700;28;20024;-79
2022/03/15 10:13:15;;;;;;;28.02;14.63;;;14.30;99.90;;;;;;5031212;28;20565;-80
2022/03/15 10:15:53;;;;;;;26.17;15.50;;;14.50;99.90;;;;;;5031755;28;20061;-80
2022/03/15 10:18:19;;;;;;;30.15;16.10;;;14.30;99.90;;;;;;5031534;28;20029;-79
2022/03/15 10:20:46;;;;;;;34.03;16.67;;;14.20;99.90;;;;;;5031999;28;20039;-80
2022/03/15 10:23:12;;;;;;;28.52;16.10;;;14.30;99.90;;;;;;5035382;28;20026;-79
2022/03/15 10:25:41;;;;;;;29.73;16.05;;;14.10;99.90;;;;;;5018013;28;20419;-80
2022/03/15 10:28:09;;;;;;;26.15;16.27;;;14.30;99.90;;;;;;5031534;28;20584;-79
2022/03/15 10:30:36;;;;;;;25.38;16.27;;;14.30;99.90;;;;;;5031484;28;20025;-79
2022/03/15 10:33:02;;;;;;;29.65;16.98;;;13.90;99.90;;;;;;5032101;28;20033;-80
2022/03/15 10:35:31;;;;;;;25.45;15.60;;;14.00;99.90;;;;;;5030522;28;20396;-80
2022/03/15 10:37:57;;;;;;;28.10;16.08;;;13.90;99.90;;;;;;5033636;28;20025;-79
2022/03/15 10:40:37;;;;;;;31.23;16.08;;;13.80;99.90;;;;;;5035031;28;20026;-80
2022/03/15 10:43:11;;;;;;;27.25;16.63;;;13.40;99.90;;;;;;5032166;28;20029;-80
2022/03/15 10:45:41;;;;;;;30.42;17.08;;;13.60;99.90;;;;;;5036644;28;20053;-80
2022/03/15 10:48:24;;;;;;;;;;;13.30;99.90;;;;;;5036308;28;20037;-80
2022/03/15 10:51:02;;;;;;;29.58;16.25;;;13.30;99.90;;;;;;5034343;28;20312;-79
2022/03/15 10:53:37;;;;;;;31.55;18.83;;;13.50;99.90;;;;;;5033238;28;20036;-80
2022/03/15 10:56:11;;;;;;;31.17;17.83;;;13.70;99.90;;;;;;5035734;28;20403;-79
2022/03/15 10:59:01;;;;;;;33.65;19.02;;;13.70;99.90;;;;;;5035755;28;20022;-79
2022/03/15 11:01:28;;;;;;;32.95;19.00;;;13.70;99.90;;;;;;5035780;28;20102;-79
2022/03/15 11:03:59;;;;;;;32.15;18.70;;;13.60;99.90;;;;;;5035470;28;20096;-80
2022/03/15 11:06:41;;;;;;;28.92;18.02;;;13.70;99.90;;;;;;5035745;28;20057;-79
2022/03/15 11:09:18;;;;;;;36.28;19.77;;;13.70;99.90;;;;;;5035594;28;20029;-80
2022/03/15 11:11:47;;;;;;;31.77;18.63;;;13.80;99.90;;;;;;5035443;28;20647;-80
2022/03/15 11:14:13;;;;;;;31.27;18.98;;;13.80;99.90;;;;;;5018777;28;20061;-80
2022/03/15 11:16:42;;;;;;;29.77;18.35;;;13.30;99.90;;;;;;5035503;28;20119;-80
2022/03/15 11:19:11;;;;;;;31.05;18.85;;;13.00;99.90;;;;;;5034116;28;20052;-80
2022/03/15 11:21:37;;;;;;;34.00;18.20;;;13.50;99.90;;;;;;5035779;28;20017;-80
2022/03/15 11:24:09;;;;;;;36.03;21.55;;;13.80;99.90;;;;;;5035201;28;20036;-80
2022/03/15 11:26:36;;;;;;;36.22;20.85;;;13.10;99.90;;;;;;5035282;28;20108;-79
2022/03/15 11:29:02;;;;;;;36.30;20.40;;;13.20;99.90;;;;;;5033281;28;20033;-80
2022/03/15 11:31:30;;;;;;;35.58;20.35;;;13.70;62.40;;;;;;5035277;28;20165;-80
2022/03/15 11:33:58;;;;;;;35.00;18.77;;;14.30;1.00;;;;;;5030540;28;20108;-81
2022/03/15 11:36:25;;;;;;;36.53;17.85;;;14.10;99.90;;;;;;5018136;28;20030;-80
2022/03/15 11:38:52;;;;;;;30.95;16.10;;;14.20;1.00;;;;;;5022297;28;20026;-80
2022/03/15 11:41:20;;;;;;;33.20;19.98;;;14.10;99.90;;;;;;5034168;28;20029;-80
2022/03/15 11:44:00;;;;;;;25.60;15.85;;;14.70;1.00;;;;;;5033757;28;20018;-80
2022/03/15 11:46:35;;;;;;;33.28;17.85;;;15.40;99.90;;;;;;5036234;28;20049;-80
2022/03/15 11:49:32;;;;;;;25.40;16.45;;;15.10;99.90;;;;;;5035690;28;20029;-81
2022/03/15 11:52:20;;;;;;;24.27;14.60;;;14.30;99.90;;;;;;5032508;28;20044;-80
2022/03/15 11:55:05;;;;;;;24.75;14.75;;;15.10;99.90;;;;;;5015042;28;20033;-80
2022/03/15 11:57:45;;;;;;;27.30;15.63;;;15.40;99.90;;;;;;5033926;28;20100;-80
2022/03/15 12:00:11;;;;;;;27.38;15.10;;;14.60;99.90;;;;;;5033817;28;20113;-80
2022/03/15 12:02:39;;;;;;;23.05;13.77;;;14.20;99.90;;;;;;5033766;28;20526;-80
2022/03/15 12:05:20;;;;;;;22.05;12.93;;;14.50;99.90;;;;;;5032049;28;20026;-80
2022/03/15 12:08:05;;;;;;;19.40;11.48;;;14.20;99.90;;;;;;5044645;28;20026;-80
2022/03/15 12:10:37;;;;;;;19.02;12.00;;;14.30;99.90;;;;;;5024832;28;20029;-79
2022/03/15 12:13:05;;;;;;;19.02;11.00;;;14.20;99.90;;;;;;5033110;28;20061;-81
2022/03/15 12:15:39;;;;;;;19.77;10.65;;;14.70;99.90;;;;;;5029079;28;20112;-80
2022/03/15 12:18:23;;;;;;;19.45;10.30;;;14.30;99.90;;;;;;5033095;28;20468;-80
2022/03/15 12:21:02;;;;;;;15.73;8.88;;;14.50;99.90;;;;;;5033149;28;20059;-80
2022/03/15 12:23:37;;;;;;;16.67;10.07;;;14.20;99.90;;;;;;5033046;28;20026;-80
2022/03/15 12:26:03;;;;;;;18.67;9.43;;;14.00;99.90;;;;;;5026016;28;20113;-80
2022/03/15 12:28:32;;;;;;;18.90;11.15;;;13.80;99.90;;;;;;5032874;28;20509;-80
2022/03/15 12:31:09;;;;;;;19.73;11.63;;;13.90;99.90;;;;;;5024556;28;20025;-79
2022/03/15 12:33:35;;;;;;;17.52;10.18;;;13.90;99.90;;;;;;5032817;28;20428;-80
2022/03/15 12:36:04;;;;;;;15.20;10.10;;;14.00;99.90;;;;;;5032408;28;20043;-79
2022/03/15 12:38:39;;;;;;;16.80;9.82;;;13.80;99.90;;;;;;5032590;28;20491;-80
2022/03/15 12:41:06;;;;;;;16.95;9.55;;;13.80;99.90;;;;;;5016721;28;20100;-80
2022/03/15 12:43:32;;;;;;;17.42;10.13;;;13.80;99.90;;;;;;5032504;28;20029;-79